Central Wisconsin Airport
KCWA : rendu visible

Aérodrome :











RETROUVEZ-NOUS SUR...

 
LOGIN :

S'inscrire | Disclaimer

   EN    FR    IT 

 









Légende :    VFR   VFR Marginal   IFR   IFR Intensif   IFR Très Intensif
Visi : 
Plafond : 
>= 8 km
>= 3000ft
5 à 8 km
1000 à 3000 ft
1500m à 5 km
500 à 1000 ft
800 à 1500m
200 à 500 ft
< 800m
< 200 ft
Symboles :   Orages  Brouillard  Fortes neiges  Fortes précipitations  Vent > 20 kt







- Altitude de l'aérodrome : 1277 ft


KCWA - Central Wisconsin

DERNIER METAR :
  • 201547Z 20004KT 10SM SCT140 22/18 A3005

METARs EXPIRÉS :
  • 201450Z 18006KT 10SM SCT140 20/18 A3004
  • 201348Z 16004KT 10SM SCT140 17/17 A3004

TAF KCWA
Valide du 20 à 12h jusqu'au 21 à 12h UTC


201120Z 2012/2112 11003KT 4SM BR SKC
FM201500 19007KT P6SM SCT120
FM201900 22010G17KT P6SM VCSH SCT045 BKN120
PROB30 2023/2102 5SM -TSRA BR BKN030CB
FM210200 32003KT 6SM BR VCSH BKN030
FM210500 33005KT P6SM SCT060
FM210800 35005KT 5SM BR SCT027
Pas de NOTAMs connus pour ce terrain.



MET'MAP, la Météo Aéronautique d'un coup d'oeil ! - Copyright ORBIFLY Décembre 2007 - Disclaimer

ORBIFLY MET'MAP TEAM :

Programmation & Développement : Alexandra Zaïnal
Conception & Développement : Baudouin d'Aumeries
Co-Programmation & Développement : Marc-Olivier Méhu
Soutien technique & logistique : Manuel Goepfert

Contact : metmap@orbifly.com




SOURCES & CREDITS :

   NOAA       Earth
Advisory